sensor_id;sensor_type;location;lat;lon;timestamp;P1;durP1;ratioP1;P2;durP2;ratioP2
69636;SDS011;56860;51.144;16.954;2024-01-15T00:00:35;9.8;;;12.5;;
69636;SDS011;56860;51.144;16.954;2024-01-15T00:01:35;9.8;;;12.5;;
69636;SDS011;56860;51.144;16.954;2024-01-15T00:02:35;10.5;;;13.1;;
69636;SDS011;56860;51.144;16.954;2024-01-15T00:03:35;10.6;;;13.5;;
69636;SDS011;56860;51.144;16.954;2024-01-15T00:04:36;10.6;;;13.5;;
69636;SDS011;56860;51.144;16.954;2024-01-15T00:05:35;10.7;;;15.1;;
69636;SDS011;56860;51.144;16.954;2024-01-15T00:06:35;10.6;;;14.4;;
69636;SDS011;56860;51.144;16.954;2024-01-15T00:07:35;10.6;;;14.4;;
69636;SDS011;56860;51.144;16.954;2024-01-15T00:08:35;11.8;;;15.3;;
69636;SDS011;56860;51.144;16.954;2024-01-15T00:09:35;11.6;;;16.2;;
69636;SDS011;56860;51.144;16.954;2024-01-15T00:10:35;11.6;;;16.2;;
69636;SDS011;56860;51.144;16.954;2024-01-15T00:11:35;11.8;;;17.7;;
69636;SDS011;56860;51.144;16.954;2024-01-15T00:12:35;11.7;;;16.5;;
69636;SDS011;56860;51.144;16.954;2024-01-15T00:13:35;11.7;;;16.5;;
69636;SDS011;56860;51.144;16.954;2024-01-15T00:14:35;9.3;;;14.7;;
69636;SDS011;56860;51.144;16.954;2024-01-15T00:15:35;10.8;;;17.0;;
69636;SDS011;56860;51.144;16.954;2024-01-15T00:16:35;10.8;;;17.0;;
69636;SDS011;56860;51.144;16.954;2024-01-15T00:17:35;10.8;;;17.0;;
69636;SDS011;56860;51.144;16.954;2024-01-15T00:18:35;11.7;;;17.2;;
69636;SDS011;56860;51.144;16.954;2024-01-15T00:19:35;11.7;;;17.2;;
69636;SDS011;56860;51.144;16.954;2024-01-15T00:20:35;11.7;;;17.2;;
69636;SDS011;56860;51.144;16.954;2024-01-15T00:21:35;11.4;;;15.4;;
69636;SDS011;56860;51.144;16.954;2024-01-15T00:22:35;11.4;;;15.4;;
69636;SDS011;56860;51.144;16.954;2024-01-15T00:23:35;11.4;;;15.4;;
69636;SDS011;56860;51.144;16.954;2024-01-15T00:24:35;11.1;;;16.4;;
69636;SDS011;56860;51.144;16.954;2024-01-15T00:25:35;11.1;;;16.4;;
69636;SDS011;56860;51.144;16.954;2024-01-15T00:26:35;11.1;;;16.4;;
69636;SDS011;56860;51.144;16.954;2024-01-15T00:27:35;10.8;;;17.9;;
69636;SDS011;56860;51.144;16.954;2024-01-15T00:28:35;10.8;;;17.9;;
69636;SDS011;56860;51.144;16.954;2024-01-15T00:29:35;10.8;;;17.9;;
69636;SDS011;56860;51.144;16.954;2024-01-15T00:30:35;11.2;;;16.3;;
69636;SDS011;56860;51.144;16.954;2024-01-15T00:31:35;11.2;;;16.3;;
69636;SDS011;56860;51.144;16.954;2024-01-15T00:32:35;11.2;;;16.3;;
69636;SDS011;56860;51.144;16.954;2024-01-15T00:33:35;11.2;;;17.4;;
69636;SDS011;56860;51.144;16.954;2024-01-15T00:34:35;11.2;;;17.4;;
69636;SDS011;56860;51.144;16.954;2024-01-15T00:35:35;11.2;;;17.4;;
69636;SDS011;56860;51.144;16.954;2024-01-15T00:36:35;11.0;;;14.8;;
69636;SDS011;56860;51.144;16.954;2024-01-15T00:37:35;11.0;;;14.8;;
69636;SDS011;56860;51.144;16.954;2024-01-15T00:38:35;11.0;;;14.8;;
69636;SDS011;56860;51.144;16.954;2024-01-15T00:39:35;11.6;;;18.1;;
69636;SDS011;56860;51.144;16.954;2024-01-15T00:40:35;11.6;;;18.1;;
69636;SDS011;56860;51.144;16.954;2024-01-15T00:41:35;11.6;;;18.1;;
69636;SDS011;56860;51.144;16.954;2024-01-15T00:42:35;10.6;;;15.3;;
69636;SDS011;56860;51.144;16.954;2024-01-15T00:43:35;10.6;;;15.3;;
69636;SDS011;56860;51.144;16.954;2024-01-15T00:44:35;10.6;;;15.3;;
69636;SDS011;56860;51.144;16.954;2024-01-15T00:45:35;10.5;;;15.8;;
69636;SDS011;56860;51.144;16.954;2024-01-15T00:46:41;10.5;;;15.8;;
69636;SDS011;56860;51.144;16.954;2024-01-15T00:47:35;10.5;;;15.8;;
69636;SDS011;56860;51.144;16.954;2024-01-15T00:48:35;10.4;;;15.0;;
69636;SDS011;56860;51.144;16.954;2024-01-15T00:49:35;10.4;;;15.0;;
69636;SDS011;56860;51.144;16.954;2024-01-15T00:50:35;10.4;;;15.0;;
69636;SDS011;56860;51.144;16.954;2024-01-15T00:51:35;11.0;;;14.2;;
69636;SDS011;56860;51.144;16.954;2024-01-15T00:52:35;11.0;;;14.2;;
69636;SDS011;56860;51.144;16.954;2024-01-15T00:53:35;11.0;;;14.2;;
69636;SDS011;56860;51.144;16.954;2024-01-15T00:54:35;10.4;;;14.5;;
69636;SDS011;56860;51.144;16.954;2024-01-15T00:55:35;10.4;;;14.5;;
69636;SDS011;56860;51.144;16.954;2024-01-15T00:56:35;10.4;;;14.5;;
69636;SDS011;56860;51.144;16.954;2024-01-15T00:57:35;10.4;;;13.4;;
69636;SDS011;56860;51.144;16.954;2024-01-15T00:58:35;10.4;;;13.4;;
69636;SDS011;56860;51.144;16.954;2024-01-15T00:59:35;10.4;;;13.4;;
69636;SDS011;56860;51.144;16.954;2024-01-15T01:00:35;10.1;;;14.0;;
69636;SDS011;56860;51.144;16.954;2024-01-15T01:01:35;10.1;;;14.0;;
69636;SDS011;56860;51.144;16.954;2024-01-15T01:02:35;10.1;;;14.0;;
69636;SDS011;56860;51.144;16.954;2024-01-15T01:03:35;10.5;;;12.8;;
69636;SDS011;56860;51.144;16.954;2024-01-15T01:04:35;10.5;;;12.8;;
69636;SDS011;56860;51.144;16.954;2024-01-15T01:05:35;10.5;;;12.8;;
69636;SDS011;56860;51.144;16.954;2024-01-15T01:06:35;10.1;;;12.7;;
69636;SDS011;56860;51.144;16.954;2024-01-15T01:07:35;10.1;;;12.7;;
69636;SDS011;56860;51.144;16.954;2024-01-15T01:08:35;10.1;;;12.7;;
69636;SDS011;56860;51.144;16.954;2024-01-15T01:09:35;10.3;;;12.8;;
69636;SDS011;56860;51.144;16.954;2024-01-15T01:10:35;10.3;;;12.8;;
69636;SDS011;56860;51.144;16.954;2024-01-15T01:11:35;10.3;;;12.8;;
69636;SDS011;56860;51.144;16.954;2024-01-15T01:12:35;10.3;;;13.5;;
69636;SDS011;56860;51.144;16.954;2024-01-15T01:13:35;10.3;;;13.5;;
69636;SDS011;56860;51.144;16.954;2024-01-15T01:14:35;10.3;;;13.5;;
69636;SDS011;56860;51.144;16.954;2024-01-15T01:15:35;10.0;;;14.0;;
69636;SDS011;56860;51.144;16.954;2024-01-15T01:16:35;10.0;;;14.0;;
69636;SDS011;56860;51.144;16.954;2024-01-15T01:17:35;10.0;;;14.0;;
69636;SDS011;56860;51.144;16.954;2024-01-15T01:18:35;10.1;;;13.5;;
69636;SDS011;56860;51.144;16.954;2024-01-15T01:19:35;10.1;;;13.5;;
69636;SDS011;56860;51.144;16.954;2024-01-15T01:20:35;10.1;;;13.5;;
69636;SDS011;56860;51.144;16.954;2024-01-15T01:21:35;10.5;;;14.2;;
69636;SDS011;56860;51.144;16.954;2024-01-15T01:22:35;10.5;;;14.2;;
69636;SDS011;56860;51.144;16.954;2024-01-15T01:23:35;10.5;;;14.2;;
69636;SDS011;56860;51.144;16.954;2024-01-15T01:24:35;9.8;;;13.9;;
69636;SDS011;56860;51.144;16.954;2024-01-15T01:25:35;9.8;;;13.9;;
69636;SDS011;56860;51.144;16.954;2024-01-15T01:26:35;9.8;;;13.9;;
69636;SDS011;56860;51.144;16.954;2024-01-15T01:27:35;9.6;;;13.9;;
69636;SDS011;56860;51.144;16.954;2024-01-15T01:28:35;9.6;;;13.9;;
69636;SDS011;56860;51.144;16.954;2024-01-15T01:29:35;9.6;;;13.9;;
69636;SDS011;56860;51.144;16.954;2024-01-15T01:30:35;9.5;;;11.5;;
69636;SDS011;56860;51.144;16.954;2024-01-15T01:31:35;9.5;;;11.5;;
69636;SDS011;56860;51.144;16.954;2024-01-15T01:32:35;9.5;;;11.5;;
69636;SDS011;56860;51.144;16.954;2024-01-15T01:33:35;9.6;;;13.2;;
69636;SDS011;56860;51.144;16.954;2024-01-15T01:34:39;9.6;;;13.2;;
69636;SDS011;56860;51.144;16.954;2024-01-15T01:35:35;9.6;;;13.2;;
69636;SDS011;56860;51.144;16.954;2024-01-15T01:36:35;10.5;;;14.6;;
69636;SDS011;56860;51.144;16.954;2024-01-15T01:37:35;10.5;;;14.6;;
69636;SDS011;56860;51.144;16.954;2024-01-15T01:38:35;10.5;;;14.6;;
69636;SDS011;56860;51.144;16.954;2024-01-15T01:39:35;9.3;;;11.4;;
69636;SDS011;56860;51.144;16.954;2024-01-15T01:40:35;9.3;;;11.4;;
69636;SDS011;56860;51.144;16.954;2024-01-15T01:41:35;9.3;;;11.4;;
69636;SDS011;56860;51.144;16.954;2024-01-15T01:42:35;9.6;;;11.4;;
69636;SDS011;56860;51.144;16.954;2024-01-15T01:43:35;9.6;;;11.4;;
69636;SDS011;56860;51.144;16.954;2024-01-15T01:44:35;9.6;;;11.4;;
69636;SDS011;56860;51.144;16.954;2024-01-15T01:45:35;9.9;;;12.4;;
69636;SDS011;56860;51.144;16.954;2024-01-15T01:46:35;9.9;;;12.4;;
69636;SDS011;56860;51.144;16.954;2024-01-15T01:47:35;9.9;;;12.4;;
69636;SDS011;56860;51.144;16.954;2024-01-15T01:48:35;9.7;;;13.3;;
69636;SDS011;56860;51.144;16.954;2024-01-15T01:49:35;9.7;;;13.3;;
69636;SDS011;56860;51.144;16.954;2024-01-15T01:50:36;9.7;;;13.3;;
69636;SDS011;56860;51.144;16.954;2024-01-15T01:51:35;10.5;;;15.7;;
69636;SDS011;56860;51.144;16.954;2024-01-15T01:52:35;10.5;;;15.7;;
69636;SDS011;56860;51.144;16.954;2024-01-15T01:53:35;10.5;;;15.7;;
69636;SDS011;56860;51.144;16.954;2024-01-15T01:54:35;10.0;;;12.9;;
69636;SDS011;56860;51.144;16.954;2024-01-15T01:55:35;10.0;;;12.9;;
69636;SDS011;56860;51.144;16.954;2024-01-15T01:56:35;10.0;;;12.9;;
69636;SDS011;56860;51.144;16.954;2024-01-15T01:57:35;10.4;;;14.1;;
69636;SDS011;56860;51.144;16.954;2024-01-15T01:58:35;10.4;;;14.1;;
69636;SDS011;56860;51.144;16.954;2024-01-15T01:59:35;10.4;;;14.1;;
69636;SDS011;56860;51.144;16.954;2024-01-15T02:00:35;10.4;;;13.5;;
69636;SDS011;56860;51.144;16.954;2024-01-15T02:01:35;10.4;;;13.5;;
69636;SDS011;56860;51.144;16.954;2024-01-15T02:02:35;10.4;;;13.5;;
69636;SDS011;56860;51.144;16.954;2024-01-15T02:03:35;10.1;;;13.8;;
69636;SDS011;56860;51.144;16.954;2024-01-15T02:04:35;10.1;;;13.8;;
69636;SDS011;56860;51.144;16.954;2024-01-15T02:05:35;10.1;;;13.8;;
69636;SDS011;56860;51.144;16.954;2024-01-15T02:06:35;9.6;;;12.3;;
69636;SDS011;56860;51.144;16.954;2024-01-15T02:07:35;9.6;;;12.3;;
69636;SDS011;56860;51.144;16.954;2024-01-15T02:08:35;9.6;;;12.3;;
69636;SDS011;56860;51.144;16.954;2024-01-15T02:09:35;10.1;;;15.7;;
69636;SDS011;56860;51.144;16.954;2024-01-15T02:10:35;10.1;;;15.7;;
69636;SDS011;56860;51.144;16.954;2024-01-15T02:11:35;10.1;;;15.7;;
69636;SDS011;56860;51.144;16.954;2024-01-15T02:12:35;9.8;;;13.2;;
69636;SDS011;56860;51.144;16.954;2024-01-15T02:13:35;9.8;;;13.2;;
69636;SDS011;56860;51.144;16.954;2024-01-15T02:14:35;9.8;;;13.2;;
69636;SDS011;56860;51.144;16.954;2024-01-15T02:15:35;10.4;;;13.4;;
69636;SDS011;56860;51.144;16.954;2024-01-15T02:16:35;10.4;;;13.4;;
69636;SDS011;56860;51.144;16.954;2024-01-15T02:17:35;10.4;;;13.4;;
69636;SDS011;56860;51.144;16.954;2024-01-15T02:18:39;9.8;;;12.9;;
69636;SDS011;56860;51.144;16.954;2024-01-15T02:19:35;9.8;;;12.9;;
69636;SDS011;56860;51.144;16.954;2024-01-15T02:20:35;9.8;;;12.9;;
69636;SDS011;56860;51.144;16.954;2024-01-15T02:21:35;9.9;;;12.3;;
69636;SDS011;56860;51.144;16.954;2024-01-15T02:22:35;9.9;;;12.3;;
69636;SDS011;56860;51.144;16.954;2024-01-15T02:23:36;9.9;;;12.3;;
69636;SDS011;56860;51.144;16.954;2024-01-15T02:24:35;10.0;;;13.4;;
69636;SDS011;56860;51.144;16.954;2024-01-15T02:25:36;10.0;;;13.4;;
69636;SDS011;56860;51.144;16.954;2024-01-15T02:26:35;10.0;;;13.4;;
69636;SDS011;56860;51.144;16.954;2024-01-15T02:27:35;9.3;;;12.7;;
69636;SDS011;56860;51.144;16.954;2024-01-15T02:28:35;9.3;;;12.7;;
69636;SDS011;56860;51.144;16.954;2024-01-15T02:29:35;9.3;;;12.7;;
69636;SDS011;56860;51.144;16.954;2024-01-15T02:30:37;9.3;;;12.3;;
69636;SDS011;56860;51.144;16.954;2024-01-15T02:31:35;9.3;;;12.3;;
69636;SDS011;56860;51.144;16.954;2024-01-15T02:32:35;9.3;;;12.3;;
69636;SDS011;56860;51.144;16.954;2024-01-15T02:35:36;9.4;;;11.3;;
69636;SDS011;56860;51.144;16.954;2024-01-15T02:36:35;9.4;;;11.3;;
69636;SDS011;56860;51.144;16.954;2024-01-15T02:37:35;10.1;;;12.4;;
69636;SDS011;56860;51.144;16.954;2024-01-15T02:38:35;10.1;;;12.4;;
69636;SDS011;56860;51.144;16.954;2024-01-15T02:39:35;10.1;;;12.4;;
69636;SDS011;56860;51.144;16.954;2024-01-15T02:40:36;9.7;;;12.8;;
69636;SDS011;56860;51.144;16.954;2024-01-15T02:41:35;9.7;;;12.8;;
69636;SDS011;56860;51.144;16.954;2024-01-15T02:42:35;9.7;;;12.8;;
69636;SDS011;56860;51.144;16.954;2024-01-15T02:43:37;9.5;;;12.1;;
69636;SDS011;56860;51.144;16.954;2024-01-15T02:44:35;9.5;;;12.1;;
69636;SDS011;56860;51.144;16.954;2024-01-15T02:45:35;9.5;;;12.1;;
69636;SDS011;56860;51.144;16.954;2024-01-15T02:46:35;10.1;;;12.3;;
69636;SDS011;56860;51.144;16.954;2024-01-15T02:47:35;10.1;;;12.3;;
69636;SDS011;56860;51.144;16.954;2024-01-15T02:48:35;10.1;;;12.3;;
69636;SDS011;56860;51.144;16.954;2024-01-15T02:49:35;10.8;;;15.7;;
69636;SDS011;56860;51.144;16.954;2024-01-15T02:50:35;10.8;;;15.7;;
69636;SDS011;56860;51.144;16.954;2024-01-15T02:51:35;10.8;;;15.7;;
69636;SDS011;56860;51.144;16.954;2024-01-15T02:52:35;9.9;;;13.4;;
69636;SDS011;56860;51.144;16.954;2024-01-15T02:53:35;9.9;;;13.4;;
69636;SDS011;56860;51.144;16.954;2024-01-15T02:54:36;9.9;;;13.4;;
69636;SDS011;56860;51.144;16.954;2024-01-15T02:55:35;10.5;;;15.7;;
69636;SDS011;56860;51.144;16.954;2024-01-15T02:56:35;10.5;;;15.7;;
69636;SDS011;56860;51.144;16.954;2024-01-15T02:57:35;10.5;;;15.7;;
69636;SDS011;56860;51.144;16.954;2024-01-15T02:58:35;10.2;;;13.6;;
69636;SDS011;56860;51.144;16.954;2024-01-15T02:59:35;10.2;;;13.6;;
69636;SDS011;56860;51.144;16.954;2024-01-15T03:00:35;10.2;;;13.6;;
69636;SDS011;56860;51.144;16.954;2024-01-15T03:01:35;9.6;;;12.1;;
69636;SDS011;56860;51.144;16.954;2024-01-15T03:02:36;9.6;;;12.1;;
69636;SDS011;56860;51.144;16.954;2024-01-15T03:03:35;9.6;;;12.1;;
69636;SDS011;56860;51.144;16.954;2024-01-15T03:04:35;10.2;;;15.0;;
69636;SDS011;56860;51.144;16.954;2024-01-15T03:05:35;10.2;;;15.0;;
69636;SDS011;56860;51.144;16.954;2024-01-15T03:06:35;10.2;;;15.0;;
69636;SDS011;56860;51.144;16.954;2024-01-15T03:07:36;9.3;;;11.4;;
69636;SDS011;56860;51.144;16.954;2024-01-15T03:08:35;9.3;;;11.4;;
69636;SDS011;56860;51.144;16.954;2024-01-15T03:09:35;9.3;;;11.4;;
69636;SDS011;56860;51.144;16.954;2024-01-15T03:10:35;9.5;;;11.4;;
69636;SDS011;56860;51.144;16.954;2024-01-15T03:11:36;9.5;;;11.4;;
69636;SDS011;56860;51.144;16.954;2024-01-15T03:12:35;9.5;;;11.4;;
69636;SDS011;56860;51.144;16.954;2024-01-15T03:13:35;9.0;;;10.4;;
69636;SDS011;56860;51.144;16.954;2024-01-15T03:14:35;9.0;;;10.4;;
69636;SDS011;56860;51.144;16.954;2024-01-15T03:15:35;9.0;;;10.4;;
69636;SDS011;56860;51.144;16.954;2024-01-15T03:16:35;8.7;;;10.1;;
69636;SDS011;56860;51.144;16.954;2024-01-15T03:17:35;8.7;;;10.1;;
69636;SDS011;56860;51.144;16.954;2024-01-15T03:18:35;8.7;;;10.1;;
69636;SDS011;56860;51.144;16.954;2024-01-15T03:19:35;8.7;;;10.7;;
69636;SDS011;56860;51.144;16.954;2024-01-15T03:20:35;8.7;;;10.7;;
69636;SDS011;56860;51.144;16.954;2024-01-15T03:21:35;8.7;;;10.7;;
69636;SDS011;56860;51.144;16.954;2024-01-15T03:22:35;8.4;;;9.7;;
69636;SDS011;56860;51.144;16.954;2024-01-15T03:23:35;8.4;;;9.7;;
69636;SDS011;56860;51.144;16.954;2024-01-15T03:24:35;8.4;;;9.7;;
69636;SDS011;56860;51.144;16.954;2024-01-15T03:25:35;8.8;;;10.4;;
69636;SDS011;56860;51.144;16.954;2024-01-15T03:26:35;8.8;;;10.4;;
69636;SDS011;56860;51.144;16.954;2024-01-15T03:27:35;8.8;;;10.4;;
69636;SDS011;56860;51.144;16.954;2024-01-15T03:28:35;8.5;;;9.7;;
69636;SDS011;56860;51.144;16.954;2024-01-15T03:29:35;8.5;;;9.7;;
69636;SDS011;56860;51.144;16.954;2024-01-15T03:30:35;8.5;;;9.7;;
69636;SDS011;56860;51.144;16.954;2024-01-15T03:31:35;8.8;;;9.9;;
69636;SDS011;56860;51.144;16.954;2024-01-15T03:32:35;8.8;;;9.9;;
69636;SDS011;56860;51.144;16.954;2024-01-15T03:33:35;8.8;;;9.9;;
69636;SDS011;56860;51.144;16.954;2024-01-15T03:34:35;8.9;;;10.3;;
69636;SDS011;56860;51.144;16.954;2024-01-15T03:35:35;8.9;;;10.3;;
69636;SDS011;56860;51.144;16.954;2024-01-15T03:36:35;8.9;;;10.3;;
69636;SDS011;56860;51.144;16.954;2024-01-15T03:37:36;7.9;;;10.5;;
69636;SDS011;56860;51.144;16.954;2024-01-15T03:38:35;7.9;;;10.5;;
69636;SDS011;56860;51.144;16.954;2024-01-15T03:39:35;7.9;;;10.5;;
69636;SDS011;56860;51.144;16.954;2024-01-15T03:40:35;8.8;;;9.9;;
69636;SDS011;56860;51.144;16.954;2024-01-15T03:41:35;8.8;;;9.9;;
69636;SDS011;56860;51.144;16.954;2024-01-15T03:42:35;8.8;;;9.9;;
69636;SDS011;56860;51.144;16.954;2024-01-15T03:43:35;9.0;;;12.8;;
69636;SDS011;56860;51.144;16.954;2024-01-15T03:44:35;9.0;;;12.8;;
69636;SDS011;56860;51.144;16.954;2024-01-15T03:45:35;9.0;;;12.8;;
69636;SDS011;56860;51.144;16.954;2024-01-15T03:46:37;8.3;;;11.4;;
69636;SDS011;56860;51.144;16.954;2024-01-15T03:47:35;8.3;;;11.4;;
69636;SDS011;56860;51.144;16.954;2024-01-15T03:48:35;8.3;;;11.4;;
69636;SDS011;56860;51.144;16.954;2024-01-15T03:49:35;8.3;;;10.1;;
69636;SDS011;56860;51.144;16.954;2024-01-15T03:50:35;8.3;;;10.1;;
69636;SDS011;56860;51.144;16.954;2024-01-15T03:51:35;8.3;;;10.1;;
69636;SDS011;56860;51.144;16.954;2024-01-15T03:52:35;8.2;;;9.1;;
69636;SDS011;56860;51.144;16.954;2024-01-15T03:53:35;8.2;;;9.1;;
69636;SDS011;56860;51.144;16.954;2024-01-15T03:54:35;8.2;;;9.1;;
69636;SDS011;56860;51.144;16.954;2024-01-15T03:55:35;8.6;;;10.2;;
69636;SDS011;56860;51.144;16.954;2024-01-15T03:56:35;8.6;;;10.2;;
69636;SDS011;56860;51.144;16.954;2024-01-15T03:57:35;8.6;;;10.2;;
69636;SDS011;56860;51.144;16.954;2024-01-15T03:58:35;8.3;;;9.2;;
69636;SDS011;56860;51.144;16.954;2024-01-15T03:59:35;8.3;;;9.2;;
69636;SDS011;56860;51.144;16.954;2024-01-15T04:00:35;8.3;;;9.2;;
69636;SDS011;56860;51.144;16.954;2024-01-15T04:01:35;8.5;;;9.3;;
69636;SDS011;56860;51.144;16.954;2024-01-15T04:02:35;8.5;;;9.3;;
69636;SDS011;56860;51.144;16.954;2024-01-15T04:03:35;8.5;;;9.3;;
69636;SDS011;56860;51.144;16.954;2024-01-15T04:04:35;8.0;;;9.1;;
69636;SDS011;56860;51.144;16.954;2024-01-15T04:05:35;8.0;;;9.1;;
69636;SDS011;56860;51.144;16.954;2024-01-15T04:06:35;8.0;;;9.1;;
69636;SDS011;56860;51.144;16.954;2024-01-15T04:07:35;8.0;;;8.8;;
69636;SDS011;56860;51.144;16.954;2024-01-15T04:08:35;8.0;;;8.8;;
69636;SDS011;56860;51.144;16.954;2024-01-15T04:09:35;8.0;;;8.8;;
69636;SDS011;56860;51.144;16.954;2024-01-15T04:10:35;7.8;;;10.4;;
69636;SDS011;56860;51.144;16.954;2024-01-15T04:11:35;7.8;;;10.4;;
69636;SDS011;56860;51.144;16.954;2024-01-15T04:12:35;7.8;;;10.4;;
69636;SDS011;56860;51.144;16.954;2024-01-15T04:13:35;7.8;;;11.2;;
69636;SDS011;56860;51.144;16.954;2024-01-15T04:14:35;7.8;;;11.2;;
69636;SDS011;56860;51.144;16.954;2024-01-15T04:15:35;7.8;;;11.2;;
69636;SDS011;56860;51.144;16.954;2024-01-15T04:16:36;7.8;;;9.9;;
69636;SDS011;56860;51.144;16.954;2024-01-15T04:17:35;7.8;;;9.9;;
69636;SDS011;56860;51.144;16.954;2024-01-15T04:18:35;7.8;;;9.9;;
69636;SDS011;56860;51.144;16.954;2024-01-15T04:19:35;7.7;;;9.6;;
69636;SDS011;56860;51.144;16.954;2024-01-15T04:20:35;7.7;;;9.6;;
69636;SDS011;56860;51.144;16.954;2024-01-15T04:21:35;7.7;;;9.6;;
69636;SDS011;56860;51.144;16.954;2024-01-15T04:22:35;8.0;;;8.8;;
69636;SDS011;56860;51.144;16.954;2024-01-15T04:23:35;8.0;;;8.8;;
69636;SDS011;56860;51.144;16.954;2024-01-15T04:24:35;8.0;;;8.8;;
69636;SDS011;56860;51.144;16.954;2024-01-15T04:25:35;7.6;;;8.4;;
69636;SDS011;56860;51.144;16.954;2024-01-15T04:26:35;7.3;;;8.2;;
69636;SDS011;56860;51.144;16.954;2024-01-15T04:27:35;7.3;;;8.2;;
69636;SDS011;56860;51.144;16.954;2024-01-15T04:28:37;7.2;;;7.9;;
69636;SDS011;56860;51.144;16.954;2024-01-15T04:29:37;7.3;;;8.1;;
69636;SDS011;56860;51.144;16.954;2024-01-15T04:30:35;7.3;;;8.1;;
69636;SDS011;56860;51.144;16.954;2024-01-15T04:31:35;6.6;;;7.2;;
69636;SDS011;56860;51.144;16.954;2024-01-15T04:32:35;6.6;;;7.3;;
69636;SDS011;56860;51.144;16.954;2024-01-15T04:33:35;6.6;;;7.3;;
69636;SDS011;56860;51.144;16.954;2024-01-15T04:34:35;6.7;;;7.8;;
69636;SDS011;56860;51.144;16.954;2024-01-15T04:35:35;6.7;;;7.8;;
69636;SDS011;56860;51.144;16.954;2024-01-15T04:36:38;6.7;;;7.8;;
69636;SDS011;56860;51.144;16.954;2024-01-15T04:37:35;6.7;;;7.6;;
69636;SDS011;56860;51.144;16.954;2024-01-15T04:38:35;6.8;;;7.7;;
69636;SDS011;56860;51.144;16.954;2024-01-15T04:39:35;6.8;;;7.7;;
69636;SDS011;56860;51.144;16.954;2024-01-15T04:40:35;6.5;;;7.1;;
69636;SDS011;56860;51.144;16.954;2024-01-15T04:41:35;6.4;;;7.0;;
69636;SDS011;56860;51.144;16.954;2024-01-15T04:42:35;6.4;;;7.0;;
69636;SDS011;56860;51.144;16.954;2024-01-15T04:43:36;6.6;;;7.3;;
69636;SDS011;56860;51.144;16.954;2024-01-15T04:44:35;6.5;;;8.5;;
69636;SDS011;56860;51.144;16.954;2024-01-15T04:45:35;6.5;;;8.5;;
69636;SDS011;56860;51.144;16.954;2024-01-15T04:46:35;6.5;;;8.6;;
69636;SDS011;56860;51.144;16.954;2024-01-15T04:47:35;6.3;;;7.4;;
69636;SDS011;56860;51.144;16.954;2024-01-15T04:48:36;6.3;;;7.4;;
69636;SDS011;56860;51.144;16.954;2024-01-15T04:49:35;6.3;;;6.9;;
69636;SDS011;56860;51.144;16.954;2024-01-15T04:50:35;6.6;;;7.3;;
69636;SDS011;56860;51.144;16.954;2024-01-15T04:51:35;6.6;;;7.3;;
69636;SDS011;56860;51.144;16.954;2024-01-15T04:52:35;6.6;;;7.3;;
69636;SDS011;56860;51.144;16.954;2024-01-15T04:53:35;7.1;;;8.0;;
69636;SDS011;56860;51.144;16.954;2024-01-15T04:54:35;7.1;;;8.0;;
69636;SDS011;56860;51.144;16.954;2024-01-15T04:55:36;7.1;;;8.0;;
69636;SDS011;56860;51.144;16.954;2024-01-15T04:56:35;7.6;;;8.6;;
69636;SDS011;56860;51.144;16.954;2024-01-15T04:57:35;7.6;;;8.6;;
69636;SDS011;56860;51.144;16.954;2024-01-15T04:58:35;7.6;;;8.6;;
69636;SDS011;56860;51.144;16.954;2024-01-15T04:59:35;7.1;;;8.8;;
69636;SDS011;56860;51.144;16.954;2024-01-15T05:00:37;7.1;;;8.8;;
69636;SDS011;56860;51.144;16.954;2024-01-15T05:01:35;7.1;;;8.8;;
69636;SDS011;56860;51.144;16.954;2024-01-15T05:02:35;6.9;;;9.0;;
69636;SDS011;56860;51.144;16.954;2024-01-15T05:03:35;6.9;;;9.0;;
69636;SDS011;56860;51.144;16.954;2024-01-15T05:04:35;6.9;;;9.0;;
69636;SDS011;56860;51.144;16.954;2024-01-15T05:05:35;6.9;;;7.9;;
69636;SDS011;56860;51.144;16.954;2024-01-15T05:06:35;6.9;;;7.9;;
69636;SDS011;56860;51.144;16.954;2024-01-15T05:07:35;6.9;;;7.9;;
69636;SDS011;56860;51.144;16.954;2024-01-15T05:08:35;6.3;;;7.0;;
69636;SDS011;56860;51.144;16.954;2024-01-15T05:09:35;6.3;;;7.0;;
69636;SDS011;56860;51.144;16.954;2024-01-15T05:10:35;6.3;;;7.0;;
69636;SDS011;56860;51.144;16.954;2024-01-15T05:11:37;6.6;;;7.2;;
69636;SDS011;56860;51.144;16.954;2024-01-15T05:12:35;6.6;;;7.2;;
69636;SDS011;56860;51.144;16.954;2024-01-15T05:13:35;6.6;;;7.2;;
69636;SDS011;56860;51.144;16.954;2024-01-15T05:14:35;6.1;;;6.7;;
69636;SDS011;56860;51.144;16.954;2024-01-15T05:15:35;6.1;;;6.7;;
69636;SDS011;56860;51.144;16.954;2024-01-15T05:16:37;6.1;;;6.7;;
69636;SDS011;56860;51.144;16.954;2024-01-15T05:17:35;6.7;;;7.3;;
69636;SDS011;56860;51.144;16.954;2024-01-15T05:18:35;6.7;;;7.3;;
69636;SDS011;56860;51.144;16.954;2024-01-15T05:19:35;6.7;;;7.3;;
69636;SDS011;56860;51.144;16.954;2024-01-15T05:20:35;7.3;;;8.9;;
69636;SDS011;56860;51.144;16.954;2024-01-15T05:21:35;7.3;;;8.9;;
69636;SDS011;56860;51.144;16.954;2024-01-15T05:22:35;7.3;;;8.9;;
69636;SDS011;56860;51.144;16.954;2024-01-15T05:23:35;7.6;;;8.4;;
69636;SDS011;56860;51.144;16.954;2024-01-15T05:24:35;7.6;;;8.4;;
69636;SDS011;56860;51.144;16.954;2024-01-15T05:25:35;7.6;;;8.4;;
69636;SDS011;56860;51.144;16.954;2024-01-15T05:26:35;6.7;;;7.4;;
69636;SDS011;56860;51.144;16.954;2024-01-15T05:27:35;6.7;;;7.4;;
69636;SDS011;56860;51.144;16.954;2024-01-15T05:28:36;6.7;;;7.4;;
69636;SDS011;56860;51.144;16.954;2024-01-15T05:29:35;7.1;;;8.0;;
69636;SDS011;56860;51.144;16.954;2024-01-15T05:30:35;7.1;;;8.0;;
69636;SDS011;56860;51.144;16.954;2024-01-15T05:31:35;7.1;;;8.0;;
69636;SDS011;56860;51.144;16.954;2024-01-15T05:32:35;7.8;;;9.5;;
69636;SDS011;56860;51.144;16.954;2024-01-15T05:33:35;7.8;;;9.5;;
69636;SDS011;56860;51.144;16.954;2024-01-15T05:34:36;7.8;;;9.5;;
69636;SDS011;56860;51.144;16.954;2024-01-15T05:35:35;6.8;;;8.5;;
69636;SDS011;56860;51.144;16.954;2024-01-15T05:36:35;6.8;;;8.5;;
69636;SDS011;56860;51.144;16.954;2024-01-15T05:37:35;6.8;;;8.5;;
69636;SDS011;56860;51.144;16.954;2024-01-15T05:38:35;7.7;;;10.2;;
69636;SDS011;56860;51.144;16.954;2024-01-15T05:39:35;7.7;;;10.2;;
69636;SDS011;56860;51.144;16.954;2024-01-15T05:40:35;7.7;;;10.2;;
69636;SDS011;56860;51.144;16.954;2024-01-15T05:41:35;8.1;;;9.1;;
69636;SDS011;56860;51.144;16.954;2024-01-15T05:42:35;8.1;;;9.1;;
69636;SDS011;56860;51.144;16.954;2024-01-15T05:43:35;8.1;;;9.1;;
69636;SDS011;56860;51.144;16.954;2024-01-15T05:44:35;8.7;;;10.4;;
69636;SDS011;56860;51.144;16.954;2024-01-15T05:45:37;8.7;;;10.4;;
69636;SDS011;56860;51.144;16.954;2024-01-15T05:46:35;8.7;;;10.4;;
69636;SDS011;56860;51.144;16.954;2024-01-15T05:47:35;8.0;;;11.3;;
69636;SDS011;56860;51.144;16.954;2024-01-15T05:48:35;8.0;;;11.3;;
69636;SDS011;56860;51.144;16.954;2024-01-15T05:49:35;8.0;;;11.3;;
69636;SDS011;56860;51.144;16.954;2024-01-15T05:50:35;8.2;;;9.6;;
69636;SDS011;56860;51.144;16.954;2024-01-15T05:51:35;8.2;;;9.6;;
69636;SDS011;56860;51.144;16.954;2024-01-15T05:52:35;8.2;;;9.6;;
69636;SDS011;56860;51.144;16.954;2024-01-15T05:53:35;7.9;;;9.0;;
69636;SDS011;56860;51.144;16.954;2024-01-15T05:54:35;7.9;;;9.0;;
69636;SDS011;56860;51.144;16.954;2024-01-15T05:55:36;7.9;;;9.0;;
69636;SDS011;56860;51.144;16.954;2024-01-15T05:56:36;7.6;;;8.8;;
69636;SDS011;56860;51.144;16.954;2024-01-15T05:57:36;7.6;;;8.8;;
69636;SDS011;56860;51.144;16.954;2024-01-15T05:58:35;7.6;;;8.8;;
69636;SDS011;56860;51.144;16.954;2024-01-15T05:59:35;8.2;;;9.7;;
69636;SDS011;56860;51.144;16.954;2024-01-15T06:00:35;8.2;;;9.7;;
69636;SDS011;56860;51.144;16.954;2024-01-15T06:01:36;8.2;;;9.7;;
69636;SDS011;56860;51.144;16.954;2024-01-15T06:02:36;8.4;;;9.8;;
69636;SDS011;56860;51.144;16.954;2024-01-15T06:03:35;8.4;;;9.8;;